Time;durP1;ratioP1;P1;durP2;ratioP2;P2;SDS_P1;SDS_P2;PMS_P1;PMS_P2;Temp;Humidity;BMP_temperature;BMP_pressure;BME280_temperature;BME280_humidity;BME280_pressure;Samples;Min_cycle;Max_cycle;Signal;HPM_P1;HPM_P2
2023/07/18 00:00:45;;;;;;;;;;;;;;;11.75;86.74;101898.19;4938586;28;20047;-76
2023/07/18 00:03:15;;;;;;;4.65;1.80;;;;;;;11.73;86.57;101905.66;4954302;28;20534;-75
2023/07/18 00:05:42;;;;;;;3.45;2.05;;;;;;;11.74;86.32;101899.25;4946600;28;20032;-75
2023/07/18 00:08:09;;;;;;;3.78;1.90;;;;;;;11.76;86.61;101891.75;4931982;28;20030;-76
2023/07/18 00:10:35;;;;;;;5.30;2.22;;;;;;;11.76;86.52;101894.44;4937300;28;20703;-76
2023/07/18 00:13:02;;;;;;;3.38;1.73;;;;;;;11.73;86.67;101894.94;4946989;28;20051;-75
2023/07/18 00:15:28;;;;;;;4.40;2.42;;;;;;;11.71;86.63;101899.72;4949094;28;20487;-75
2023/07/18 00:17:54;;;;;;;4.57;2.20;;;;;;;11.67;87.04;101895.94;4940334;28;20552;-75
2023/07/18 00:20:22;;;;;;;;;;;;;;;11.67;87.41;101890.56;4950158;28;20042;-76
2023/07/18 00:22:50;;;;;;;3.53;2.20;;;;;;;11.65;86.85;101897.22;4944759;28;20431;-75
2023/07/18 00:25:21;;;;;;;4.75;2.20;;;;;;;11.63;87.08;101896.66;4915984;28;20042;-75
2023/07/18 00:27:53;;;;;;;3.47;2.33;;;;;;;11.63;87.14;101894.78;4941750;28;20154;-75
2023/07/18 00:30:21;;;;;;;3.92;2.30;;;;;;;11.62;87.25;101889.69;4929653;28;20097;-75
2023/07/18 00:32:47;;;;;;;4.45;2.58;;;;;;;11.64;87.78;101890.22;4947832;28;20039;-76
2023/07/18 00:35:16;;;;;;;4.90;2.50;;;;;;;11.66;87.36;101894.31;4942914;28;20109;-75
2023/07/18 00:37:43;;;;;;;6.40;3.08;;;;;;;11.67;87.18;101895.94;4914808;28;20500;-77
2023/07/18 00:40:11;;;;;;;6.45;3.13;;;;;;;11.69;87.07;101895.69;4944214;28;20037;-76
2023/07/18 00:42:44;;;;;;;4.25;2.90;;;;;;;11.70;87.37;101895.41;4949672;28;20042;-75
2023/07/18 00:45:11;;;;;;;3.97;2.40;;;;;;;11.69;87.32;101903.72;4915465;28;20069;-75
2023/07/18 00:47:40;;;;;;;4.97;3.00;;;;;;;11.67;87.72;101901.28;4931820;28;20046;-75
2023/07/18 00:50:08;;;;;;;5.88;3.20;;;;;;;11.66;87.25;101897.00;4950734;28;20393;-74
2023/07/18 00:52:41;;;;;;;3.92;2.63;;;;;;;11.64;86.94;101891.03;4927690;28;20155;-75
2023/07/18 00:55:10;;;;;;;4.32;2.50;;;;;;;11.65;86.85;101886.47;4960216;28;20027;-75
2023/07/18 00:57:41;;;;;;;5.78;2.85;;;;;;;11.61;87.01;101891.56;4949475;28;20046;-77
2023/07/18 01:00:11;;;;;;;3.72;2.97;;;;;;;11.60;86.94;101889.94;4953215;28;20045;-76
2023/07/18 01:02:46;;;;;;;5.15;3.53;;;;;;;11.60;87.37;101889.13;4938638;28;20038;-75
2023/07/18 01:05:16;;;;;;;5.05;3.00;;;;;;;11.58;87.27;101889.34;4910930;28;20140;-74
2023/07/18 01:07:44;;;;;;;6.22;3.10;;;;;;;11.55;87.41;101889.84;4907464;28;20058;-75
2023/07/18 01:10:24;;;;;;;3.88;2.65;;;;;;;11.56;87.23;101890.66;4927529;28;20143;-74
2023/07/18 01:12:58;;;;;;;6.60;3.13;;;;;;;11.54;87.34;101895.47;4954025;28;20035;-75
2023/07/18 01:15:26;;;;;;;4.72;2.90;;;;;;;11.50;87.67;101887.09;4949553;28;20059;-75
2023/07/18 01:17:52;;;;;;;4.63;2.50;;;;;;;11.49;87.69;101888.97;4963541;28;20636;-76
2023/07/18 01:20:23;;;;;;;5.05;2.78;;;;;;;11.50;87.76;101897.84;4926555;28;20121;-76
2023/07/18 01:22:52;;;;;;;5.35;3.10;;;;;;;11.52;87.57;101895.72;4937542;28;20932;-75
2023/07/18 01:25:18;;;;;;;9.15;4.00;;;;;;;11.51;88.65;101895.97;4926645;28;20039;-75
2023/07/18 01:27:49;;;;;;;5.78;4.10;;;;;;;11.49;88.12;101897.03;4927548;28;20076;-75
2023/07/18 01:30:19;;;;;;;4.97;3.25;;;;;;;11.51;88.06;101893.28;4918385;28;20031;-75
2023/07/18 01:32:48;;;;;;;5.80;3.97;;;;;;;11.53;88.13;101886.63;4944843;28;20480;-74
2023/07/18 01:35:15;;;;;;;4.47;3.13;;;;;;;11.53;87.82;101891.19;4924529;29;20043;-74
2023/07/18 01:37:44;;;;;;;5.25;3.47;;;;;;;11.54;87.87;101890.94;4942954;28;20073;-74
2023/07/18 01:40:21;;;;;;;7.90;3.92;;;;;;;11.53;88.03;101894.66;4938449;28;20046;-76
2023/07/18 01:42:53;;;;;;;6.97;3.78;;;;;;;11.53;88.26;101878.56;4950155;28;20613;-76
2023/07/18 01:45:20;;;;;;;5.70;2.78;;;;;;;11.53;88.21;101880.44;4930757;28;20031;-77
2023/07/18 01:47:46;;;;;;;7.90;4.05;;;;;;;11.52;88.34;101882.31;4948798;28;20072;-76
2023/07/18 01:50:12;;;;;;;7.18;3.95;;;;;;;11.51;88.71;101880.66;4943090;28;20489;-76
2023/07/18 01:52:38;;;;;;;11.85;4.03;;;;;;;11.51;88.49;101885.22;4948434;28;20035;-77
2023/07/18 01:55:05;;;;;;;7.70;5.00;;;;;;;11.52;88.80;101885.00;4929986;28;20039;-76
2023/07/18 01:57:41;;;;;;;6.93;4.20;;;;;;;11.50;89.05;101884.41;4950257;28;20288;-77
2023/07/18 02:00:10;;;;;;;8.82;4.00;;;;;;;11.52;88.65;101882.31;4944634;28;20039;-75
2023/07/18 02:02:41;;;;;;;8.13;4.82;;;;;;;11.52;89.17;101884.19;4951753;28;20035;-76
2023/07/18 02:05:08;;;;;;;8.88;4.80;;;;;;;11.51;88.92;101875.31;4912316;28;20035;-76
2023/07/18 02:07:34;;;;;;;6.35;4.60;;;;;;;11.51;89.02;101875.31;4932269;28;20046;-75
2023/07/18 02:10:01;;;;;;;7.63;4.63;;;;;;;11.51;89.14;101874.50;4927313;28;20347;-75
2023/07/18 02:12:27;;;;;;;6.50;4.00;;;;;;;11.52;89.06;101865.41;4949633;28;20067;-75
2023/07/18 02:14:54;;;;;;;6.47;4.65;;;;;;;11.50;88.84;101873.69;4938680;28;20023;-74
2023/07/18 02:17:19;;;;;;;7.97;4.75;;;;;;;11.49;89.14;101877.44;4925541;29;20125;-74
2023/07/18 02:19:45;;;;;;;9.65;6.05;;;;;;;11.51;89.88;101875.31;4960088;28;20043;-75
2023/07/18 02:22:11;;;;;;;;;;;;;;;11.58;91.00;101883.19;4923014;28;20035;-75
2023/07/18 02:24:37;;;;;;;9.43;5.03;;;;;;;11.55;90.70;101883.69;4932831;28;19924;-74
2023/07/18 02:27:04;;;;;;;8.30;4.50;;;;;;;11.52;89.91;101882.31;4934252;28;20047;-74
2023/07/18 02:29:30;;;;;;;8.75;5.32;;;;;;;11.52;89.60;101876.97;4966551;28;20038;-75
2023/07/18 02:31:56;;;;;;;;;;;;;;;11.51;89.82;101880.66;4940420;28;20418;-74
2023/07/18 02:34:22;;;;;;;5.75;4.03;;;;;;;11.48;89.42;101878.50;4934090;28;20462;-74
2023/07/18 02:36:49;;;;;;;7.40;4.53;;;;;;;11.49;89.40;101888.16;4933050;28;20039;-75
2023/07/18 02:39:15;;;;;;;8.25;4.75;;;;;;;11.48;89.36;101875.81;4923651;28;20031;-74
2023/07/18 02:41:40;;;;;;;;;;;;;;;11.48;89.56;101870.44;4949890;28;20081;-74
2023/07/18 02:44:06;;;;;;;7.88;4.68;;;;;;;11.44;89.82;101870.13;4939138;28;20347;-75
2023/07/18 02:46:34;;;;;;;7.20;4.95;;;;;;;11.43;89.55;101865.81;4949528;28;20039;-74
2023/07/18 02:49:00;;;;;;;7.93;4.60;;;;;;;11.44;89.16;101858.59;4926396;28;20027;-74
2023/07/18 02:51:26;;;;;;;8.60;4.40;;;;;;;11.43;88.96;101863.13;4930527;28;20967;-74
2023/07/18 02:53:52;;;;;;;10.18;5.18;;;;;;;11.44;89.03;101864.75;4926097;28;20035;-73
2023/07/18 02:56:18;;;;;;;8.05;5.00;;;;;;;11.44;89.51;101859.38;4903492;28;20047;-74
2023/07/18 02:58:43;;;;;;;8.93;5.65;;;;;;;11.42;89.52;101860.72;4931927;28;20523;-74
2023/07/18 03:01:09;;;;;;;9.10;5.47;;;;;;;11.43;89.55;101868.50;4927393;28;20161;-74
2023/07/18 03:03:38;;;;;;;6.85;4.72;;;;;;;11.45;89.37;101870.97;4947231;28;20045;-76
2023/07/18 03:06:04;;;;;;;8.90;4.97;;;;;;;11.44;89.26;101874.69;4953268;28;20094;-74
2023/07/18 03:08:32;;;;;;;10.32;5.15;;;;;;;11.44;89.52;101880.03;4916377;28;20074;-75
2023/07/18 03:10:59;;;;;;;9.30;4.43;;;;;;;11.44;89.08;101877.34;4939195;28;20035;-76
2023/07/18 03:13:27;;;;;;;11.95;5.80;;;;;;;11.46;90.20;101878.75;4945504;28;20036;-73
2023/07/18 03:15:55;;;;;;;9.05;5.82;;;;;;;11.47;89.76;101883.06;4949526;28;20037;-76
2023/07/18 03:18:21;;;;;;;10.40;4.63;;;;;;;11.48;89.67;101881.19;4933172;28;20031;-75
2023/07/18 03:20:47;;;;;;;10.70;5.95;;;;;;;11.46;89.82;101888.69;4950938;28;20041;-74
2023/07/18 03:23:13;;;;;;;8.15;5.22;;;;;;;11.46;90.12;101883.31;4952653;28;20138;-74
2023/07/18 03:25:39;;;;;;;10.02;5.85;;;;;;;11.46;90.39;101880.63;4937384;28;20071;-74
2023/07/18 03:28:04;;;;;;;8.25;5.40;;;;;;;11.48;90.08;101881.19;4941267;28;20035;-75
2023/07/18 03:30:33;;;;;;;8.70;5.68;;;;;;;11.49;89.75;101882.81;4943588;28;20070;-75
2023/07/18 03:32:59;;;;;;;9.52;4.68;;;;;;;11.48;89.63;101890.03;4948405;28;20509;-74
2023/07/18 03:35:26;;;;;;;8.27;5.15;;;;;;;11.49;89.74;101897.03;4953884;28;20074;-75
2023/07/18 03:37:52;;;;;;;;;;;;;;;11.53;90.07;101897.34;4944163;28;20428;-75
2023/07/18 03:40:20;;;;;;;8.60;4.97;;;;;;;11.52;90.39;101901.09;4950916;28;19933;-76
2023/07/18 03:42:46;;;;;;;12.40;6.53;;;;;;;11.62;91.60;101898.53;4916265;28;20432;-73
2023/07/18 03:45:13;;;;;;;9.65;5.90;;;;;;;11.67;91.47;101895.94;4935537;28;20039;-75
2023/07/18 03:47:43;;;;;;;10.32;5.45;;;;;;;11.67;91.00;101895.94;4966166;28;20050;-77
2023/07/18 03:50:11;;;;;;;7.93;5.15;;;;;;;11.68;90.47;101897.53;4936631;28;20123;-76
2023/07/18 03:52:38;;;;;;;11.30;6.40;;;;;;;11.69;90.46;101896.47;4942455;28;20042;-76
2023/07/18 03:55:05;;;;;;;7.97;5.10;;;;;;;11.68;90.02;101892.19;4953795;28;20027;-75
2023/07/18 03:57:31;;;;;;;11.75;6.10;;;;;;;11.69;90.40;101888.44;4959888;28;20058;-76
2023/07/18 03:59:57;;;;;;;;;;;;;;;11.70;91.21;101878.50;4947967;28;20037;-76
2023/07/18 04:02:22;;;;;;;12.30;6.60;;;;;;;11.70;91.11;101891.94;4951310;28;20017;-76
2023/07/18 04:04:48;;;;;;;10.43;6.70;;;;;;;11.75;91.64;101887.44;4969621;28;20132;-75
2023/07/18 04:07:15;;;;;;;12.82;7.00;;;;;;;11.83;92.17;101888.91;4936271;28;20478;-76
2023/07/18 04:09:41;;;;;;;8.93;5.90;;;;;;;11.95;92.20;101896.84;4955620;28;20296;-77
2023/07/18 04:12:07;;;;;;;11.68;7.25;;;;;;;12.05;92.67;101885.41;4949268;28;20035;-75
2023/07/18 04:14:35;;;;;;;13.27;7.38;;;;;;;12.14;92.63;101883.91;4954031;28;20409;-77
2023/07/18 04:17:01;;;;;;;14.93;7.47;;;;;;;12.24;92.90;101895.56;4945493;28;20130;-74
2023/07/18 04:19:29;;;;;;;14.20;7.28;;;;;;;12.37;93.33;101890.84;4966297;28;20078;-76
2023/07/18 04:21:55;;;;;;;12.88;7.68;;;;;;;12.43;92.81;101893.34;4914840;28;20210;-76
2023/07/18 04:24:21;;;;;;;13.32;7.07;;;;;;;12.52;92.50;101891.00;4938518;28;20039;-76
2023/07/18 04:26:47;;;;;;;15.70;8.27;;;;;;;12.61;92.51;101892.16;4934005;28;20035;-77
2023/07/18 04:29:13;;;;;;;19.13;9.93;;;;;;;12.69;92.75;101894.38;4928233;28;20035;-75
2023/07/18 04:31:38;;;;;;;15.77;7.82;;;;;;;12.74;92.25;101896.31;4948727;28;20101;-74
2023/07/18 04:34:04;;;;;;;15.43;7.80;;;;;;;12.81;92.12;101888.84;4943271;28;20039;-74
2023/07/18 04:36:30;;;;;;;13.75;8.02;;;;;;;12.90;92.70;101884.63;4951891;28;20039;-74
2023/07/18 04:38:55;;;;;;;15.23;8.27;;;;;;;12.96;92.02;101886.28;4927814;28;20050;-78
2023/07/18 04:41:21;;;;;;;12.52;7.00;;;;;;;13.04;92.06;101882.28;4946215;28;20519;-76
2023/07/18 04:43:46;;;;;;;17.63;8.18;;;;;;;13.08;91.68;101875.34;4949613;28;20039;-76
2023/07/18 04:46:12;;;;;;;14.38;7.47;;;;;;;13.11;91.45;101881.00;4945096;28;20199;-76
2023/07/18 04:48:38;;;;;;;14.02;7.32;;;;;;;13.19;91.77;101885.06;4952700;28;20527;-76
2023/07/18 04:51:03;;;;;;;16.02;7.18;;;;;;;13.27;91.94;101884.63;4952417;28;20175;-75
2023/07/18 04:53:31;;;;;;;13.98;7.13;;;;;;;13.34;91.69;101887.91;4935547;28;20046;-76
2023/07/18 04:55:56;;;;;;;13.40;7.25;;;;;;;13.43;91.60;101892.81;4946763;28;20777;-75
2023/07/18 04:58:27;;;;;;;13.57;7.18;;;;;;;13.49;91.36;101894.47;4961059;28;20428;-76
2023/07/18 05:00:55;;;;;;;16.15;7.50;;;;;;;13.55;90.83;101893.41;4946998;28;20035;-75
2023/07/18 05:03:21;;;;;;;13.52;7.18;;;;;;;13.59;90.66;101892.63;4925244;28;20042;-77
2023/07/18 05:05:47;;;;;;;13.23;7.63;;;;;;;13.63;90.95;101896.41;4935918;28;20101;-75
2023/07/18 05:08:13;;;;;;;;;;;;;;;13.68;90.57;101892.09;4933256;28;20685;-75
2023/07/18 05:10:39;;;;;;;10.25;5.72;;;;;;;13.69;90.31;101899.94;4940012;28;19914;-76
2023/07/18 05:13:05;;;;;;;17.10;7.45;;;;;;;13.71;90.12;101897.78;4932477;28;20031;-76
2023/07/18 05:15:30;;;;;;;13.18;6.97;;;;;;;13.74;90.78;101902.63;4950343;28;20027;-76
2023/07/18 05:17:56;;;;;;;;;;;;;;;13.77;90.51;101896.75;4943794;28;20039;-76
2023/07/18 05:20:21;;;;;;;11.15;6.22;;;;;;;13.77;90.03;101896.75;4937722;28;20016;-76
2023/07/18 05:22:47;;;;;;;15.73;7.55;;;;;;;13.85;90.07;101901.63;4948409;28;20090;-77
2023/07/18 05:25:14;;;;;;;;;;;;;;;13.95;91.13;101906.22;4947784;28;20043;-76
2023/07/18 05:27:40;;;;;;;10.68;6.57;;;;;;;14.02;90.27;101905.97;4963552;28;20457;-76
2023/07/18 05:30:14;;;;;;;12.02;6.50;;;;;;;14.07;89.54;101906.00;4905485;28;20031;-77
2023/07/18 05:32:41;;;;;;;10.82;5.88;;;;;;;14.13;89.04;101910.34;4934650;28;20528;-77
2023/07/18 05:35:11;;;;;;;15.13;6.53;;;;;;;14.20;90.04;101900.94;4942689;28;20039;-77
2023/07/18 05:37:43;;;;;;;14.90;6.55;;;;;;;14.29;89.72;101906.59;4946776;28;20067;-76
2023/07/18 05:40:10;;;;;;;12.55;5.63;;;;;;;14.37;89.64;101903.41;4948299;28;20058;-76
2023/07/18 05:42:40;;;;;;;13.80;6.05;;;;;;;14.45;89.49;101902.88;4951608;28;20036;-76
2023/07/18 05:45:10;;;;;;;13.15;6.57;;;;;;;14.48;87.68;101896.97;4925860;28;20051;-76
2023/07/18 05:47:37;;;;;;;12.65;6.00;;;;;;;14.54;88.89;101905.06;4938571;28;20042;-75
2023/07/18 05:50:04;;;;;;;13.63;7.03;;;;;;;14.60;88.56;101904.00;4929360;28;20027;-77
2023/07/18 05:52:30;;;;;;;11.32;5.68;;;;;;;14.68;88.34;101898.88;4937583;28;20121;-76
2023/07/18 05:54:55;;;;;;;10.05;5.63;;;;;;;14.76;88.47;101905.63;4942267;28;20200;-75
2023/07/18 05:57:21;;;;;;;12.55;5.95;;;;;;;14.85;88.01;101908.59;4932057;28;20730;-76
2023/07/18 05:59:47;;;;;;;13.00;5.97;;;;;;;14.92;86.81;101903.75;4955365;28;20050;-76
2023/07/18 06:02:14;;;;;;;;;;;;;;;15.02;87.20;101896.44;4949427;28;20039;-77
2023/07/18 06:04:39;;;;;;;10.30;5.50;;;;;;;15.11;86.75;101898.63;4937732;28;20583;-77
2023/07/18 06:07:06;;;;;;;11.45;5.97;;;;;;;15.26;86.52;101898.59;4942994;28;20559;-77
2023/07/18 06:09:32;;;;;;;9.73;4.80;;;;;;;15.37;85.35;101900.16;4933745;28;20474;-77
2023/07/18 06:11:59;;;;;;;12.07;5.47;;;;;;;15.49;85.41;101894.47;4943380;28;20185;-75
2023/07/18 06:14:25;;;;;;;9.23;4.43;;;;;;;15.51;84.70;101890.44;4931612;28;20924;-76
2023/07/18 06:16:51;;;;;;;10.82;4.05;;;;;;;15.63;85.30;101897.44;4919063;28;20059;-75
2023/07/18 06:19:16;;;;;;;;;;;;;;;15.64;86.80;101897.16;4931688;28;20035;-76
2023/07/18 06:21:42;;;;;;;8.90;4.22;;;;;;;15.65;87.85;101898.00;4980489;28;19929;-76
2023/07/18 06:24:08;;;;;;;10.07;4.30;;;;;;;15.67;87.57;101901.22;4929722;28;20565;-74
2023/07/18 06:26:34;;;;;;;6.93;3.28;;;;;;;15.68;88.28;101897.44;4947115;28;20054;-74
2023/07/18 06:29:00;;;;;;;;;;;;;;;15.76;86.88;101902.25;4950282;28;20400;-74
2023/07/18 06:31:28;;;;;;;8.90;3.45;;;;;;;15.82;86.68;101899.25;4961491;28;19957;-75
2023/07/18 06:33:54;;;;;;;8.25;3.58;;;;;;;15.93;86.14;101902.72;4923710;28;20090;-75
2023/07/18 06:36:20;;;;;;;12.38;3.55;;;;;;;16.01;88.84;101907.56;4949335;28;20484;-75
2023/07/18 06:38:46;;;;;;;10.45;3.50;;;;;;;16.02;87.64;101909.16;4949897;28;20398;-76
2023/07/18 06:41:12;;;;;;;;;;;;;;;16.03;87.24;101910.78;4911774;28;20117;-75
2023/07/18 06:43:39;;;;;;;9.82;3.03;;;;;;;16.08;86.38;101907.25;4947992;28;19918;-77
2023/07/18 06:46:04;;;;;;;11.65;4.10;;;;;;;16.16;87.61;101913.97;4924845;28;20041;-77
2023/07/18 06:48:30;;;;;;;;;;;;;;;16.26;85.38;101913.91;4934065;28;20043;-77
2023/07/18 06:50:58;;;;;;;10.30;3.00;;;;;;;16.33;84.95;101915.22;4948519;28;19918;-76
2023/07/18 06:53:23;;;;;;;8.45;3.13;;;;;;;16.46;83.56;101908.38;4946834;28;20113;-77
2023/07/18 06:55:49;;;;;;;;;;;;;;;16.62;86.23;101911.78;4948270;28;20505;-78
2023/07/18 06:58:17;;;;;;;14.63;3.97;;;;;;;16.70;86.25;101913.09;4947261;28;19921;-76
2023/07/18 07:00:44;;;;;;;12.98;3.63;;;;;;;16.74;82.69;101903.34;4947386;28;20034;-78
2023/07/18 07:03:11;;;;;;;7.75;3.25;;;;;;;16.79;85.01;101906.00;4960841;28;20201;-78
2023/07/18 07:05:42;;;;;;;7.00;3.33;;;;;;;16.83;86.09;101907.06;4952437;28;20031;-77
2023/07/18 07:08:09;;;;;;;9.15;3.78;;;;;;;16.81;85.48;101903.84;4943305;28;20098;-76
2023/07/18 07:10:37;;;;;;;8.50;3.50;;;;;;;16.77;83.79;101909.00;4932644;28;20047;-75
2023/07/18 07:13:05;;;;;;;8.32;3.22;;;;;;;16.71;85.38;101903.91;4927245;28;20039;-78
2023/07/18 07:15:32;;;;;;;8.48;3.10;;;;;;;16.81;84.00;101909.25;4927323;28;20232;-77
2023/07/18 07:17:59;;;;;;;10.10;3.50;;;;;;;16.80;82.52;101913.00;4941559;28;20043;-77
2023/07/18 07:20:25;;;;;;;9.00;2.90;;;;;;;16.85;84.86;101911.09;4930607;28;20848;-77
2023/07/18 07:22:53;;;;;;;9.27;3.25;;;;;;;16.91;84.58;101911.84;4949937;28;20047;-79
2023/07/18 07:25:21;;;;;;;10.65;3.42;;;;;;;16.98;80.77;101914.22;4930646;28;20032;-78
2023/07/18 07:27:47;;;;;;;9.25;3.00;;;;;;;17.11;80.99;101910.88;4948184;28;20043;-78
2023/07/18 07:30:16;;;;;;;;;;;;;;;17.14;81.88;101907.59;4940939;28;20042;-78
2023/07/18 07:32:43;;;;;;;6.78;2.80;;;;;;;17.16;81.61;101905.41;4951836;28;20001;-79
2023/07/18 07:35:10;;;;;;;8.85;3.92;;;;;;;17.18;80.16;101912.13;4910229;29;20043;-77
2023/07/18 07:37:36;;;;;;;6.57;3.08;;;;;;;17.29;79.97;101912.06;4928443;28;20102;-76
2023/07/18 07:40:11;;;;;;;7.60;3.25;;;;;;;17.45;81.53;101908.09;4919327;28;20049;-76
2023/07/18 07:42:39;;;;;;;6.72;3.17;;;;;;;17.45;81.81;101918.91;4963108;28;20051;-76
2023/07/18 07:45:06;;;;;;;8.48;3.83;;;;;;;17.45;81.33;101911.59;4950891;28;20503;-76
2023/07/18 07:47:31;;;;;;;7.78;3.20;;;;;;;17.42;81.05;101914.91;4950369;28;20421;-77
2023/07/18 07:49:57;;;;;;;;;;;;;;;17.49;79.89;101911.84;4944223;28;20039;-75
2023/07/18 07:52:23;;;;;;;8.85;3.20;;;;;;;17.59;80.44;101919.03;4949844;28;19997;-76
2023/07/18 07:54:48;;;;;;;;;;;;;;;17.75;79.66;101923.22;4932950;29;20078;-77
2023/07/18 07:57:14;;;;;;;7.88;3.40;;;;;;;17.85;78.77;101914.16;4946588;28;19965;-76
2023/07/18 07:59:40;;;;;;;;;;;;;;;17.97;77.28;101919.97;4959086;28;20035;-77
2023/07/18 08:02:06;;;;;;;9.98;3.38;;;;;;;18.17;78.24;101905.34;4948696;28;19914;-76
2023/07/18 08:04:32;;;;;;;;;;;;;;;18.31;77.73;101913.56;4962059;28;20597;-77
2023/07/18 08:06:58;;;;;;;7.00;3.78;;;;;;;18.49;75.92;101915.44;4945071;28;19923;-77
2023/07/18 08:09:23;;;;;;;8.50;3.10;;;;;;;18.64;74.80;101917.13;4934097;28;20122;-77
2023/07/18 08:11:49;;;;;;;;;;;;;;;18.75;73.17;101903.13;4958857;28;20580;-77
2023/07/18 08:14:17;;;;;;;9.13;2.80;;;;;;;18.98;72.08;101909.53;4951398;28;19933;-77
2023/07/18 08:16:43;;;;;;;7.50;3.03;;;;;;;19.00;73.84;101903.81;4938294;28;20078;-77
2023/07/18 08:19:09;;;;;;;8.02;3.50;;;;;;;18.93;74.33;101906.09;4943396;28;20039;-76
2023/07/18 08:21:35;;;;;;;6.75;2.65;;;;;;;18.90;70.88;101898.53;4946791;28;20035;-77
2023/07/18 08:24:01;;;;;;;7.10;2.83;;;;;;;19.00;72.37;101898.38;4930957;28;20045;-78
2023/07/18 08:26:26;;;;;;;6.22;2.53;;;;;;;18.91;70.27;101895.56;4929752;28;20130;-76
2023/07/18 08:28:52;;;;;;;3.78;2.20;;;;;;;18.88;71.73;101887.97;4925237;28;20042;-78
2023/07/18 08:31:19;;;;;;;4.00;2.30;;;;;;;18.96;71.67;101895.44;4955524;28;20385;-78
2023/07/18 08:33:45;;;;;;;7.60;2.80;;;;;;;19.15;71.09;101889.16;4951866;28;20031;-77
2023/07/18 08:36:11;;;;;;;7.88;3.47;;;;;;;19.28;68.99;101882.94;4944179;28;20046;-76
2023/07/18 08:38:37;;;;;;;6.75;2.83;;;;;;;19.42;67.27;101881.03;4946342;28;20073;-75
2023/07/18 08:41:03;;;;;;;;;;;;;;;19.47;67.05;101877.41;4926893;28;20738;-76
2023/07/18 08:43:33;;;;;;;5.13;2.53;;;;;;;19.60;65.73;101869.28;4952426;28;19922;-79
2023/07/18 08:46:01;;;;;;;7.20;2.88;;;;;;;19.72;69.97;101876.94;4945428;28;20492;-78
2023/07/18 08:48:27;;;;;;;3.67;2.10;;;;;;;19.83;66.67;101872.06;4954776;28;20653;-76
2023/07/18 08:50:53;;;;;;;;;;;;;;;19.84;63.18;101863.59;4943513;28;20054;-76
2023/07/18 08:53:19;;;;;;;5.95;2.30;;;;;;;19.87;66.49;101867.66;4933855;28;20806;-77
2023/07/18 08:55:46;;;;;;;5.28;2.42;;;;;;;19.98;66.29;101862.78;4955227;28;20037;-76
2023/07/18 08:58:13;;;;;;;6.03;2.90;;;;;;;20.12;65.69;101858.13;4944828;28;20035;-76
2023/07/18 09:00:39;;;;;;;;;;;;;;;20.29;64.67;101860.19;4936343;29;20062;-79
2023/07/18 09:03:05;;;;;;;5.20;2.92;;;;;;;20.40;66.19;101859.63;4923238;28;19919;-78
2023/07/18 09:05:36;;;;;;;4.03;2.05;;;;;;;20.45;61.40;101856.00;4954092;28;20042;-77
2023/07/18 09:08:04;;;;;;;5.85;2.30;;;;;;;20.64;63.19;101853.91;4940873;28;20568;-77
2023/07/18 09:10:31;;;;;;;4.60;2.17;;;;;;;20.66;64.39;101859.84;4947031;28;20623;-80
2023/07/18 09:13:02;;;;;;;4.82;2.70;;;;;;;20.76;62.57;101856.06;4933635;28;20043;-79
2023/07/18 09:15:28;;;;;;;5.38;2.88;;;;;;;20.75;64.06;101846.28;4924301;28;20125;-78
2023/07/18 09:18:00;;;;;;;5.22;2.70;;;;;;;20.77;62.91;101845.97;4947910;28;20035;-77
2023/07/18 09:20:28;;;;;;;5.60;2.10;;;;;;;20.63;62.04;101848.75;4946402;28;20032;-76
2023/07/18 09:22:56;;;;;;;4.93;2.17;;;;;;;20.59;60.46;101853.22;4944420;28;20050;-77
2023/07/18 09:25:23;;;;;;;4.50;1.95;;;;;;;20.56;62.31;101848.41;4947393;28;20154;-78
2023/07/18 09:27:53;;;;;;;4.63;2.22;;;;;;;20.55;59.39;101849.53;4941820;28;20050;-76
2023/07/18 09:30:35;;;;;;;4.13;2.15;;;;;;;20.60;62.03;101847.47;4947180;28;20027;-77
2023/07/18 09:33:07;;;;;;;5.05;1.80;;;;;;;20.74;61.55;101846.59;4940172;28;20475;-78
2023/07/18 09:35:38;;;;;;;3.58;1.80;;;;;;;20.89;59.91;101854.38;4935115;28;20035;-77
2023/07/18 09:38:06;;;;;;;4.00;1.85;;;;;;;20.88;59.67;101845.41;4929914;28;20043;-77
2023/07/18 09:40:31;;;;;;;5.75;1.90;;;;;;;20.64;59.45;101843.00;4948433;28;20039;-77
2023/07/18 09:43:00;;;;;;;5.93;1.90;;;;;;;20.62;62.58;101842.53;4927988;28;20041;-78
2023/07/18 09:45:27;;;;;;;3.75;1.70;;;;;;;20.54;60.19;101839.75;4899374;28;20501;-77
2023/07/18 09:47:52;;;;;;;5.05;1.85;;;;;;;20.74;59.59;101841.97;4951798;28;20125;-79
2023/07/18 09:50:18;;;;;;;5.55;2.10;;;;;;;20.92;58.83;101848.28;4934305;28;20138;-78
2023/07/18 09:52:49;;;;;;;3.40;1.42;;;;;;;21.05;57.41;101849.31;4937790;28;20034;-77
2023/07/18 09:55:29;;;;;;;4.15;1.85;;;;;;;21.22;60.03;101846.69;4943676;28;20105;-78
2023/07/18 09:57:55;;;;;;;3.75;1.60;;;;;;;21.35;59.07;101851.25;4953124;28;20840;-79
2023/07/18 10:00:25;;;;;;;5.00;1.70;;;;;;;21.48;57.06;101844.88;4921498;28;20696;-78
2023/07/18 10:02:54;;;;;;;3.75;1.50;;;;;;;21.49;56.41;101843.75;4935974;28;20043;-78
2023/07/18 10:05:20;;;;;;;3.33;1.80;;;;;;;21.52;54.51;101834.13;4934073;28;20122;-75
2023/07/18 10:07:46;;;;;;;5.20;1.58;;;;;;;21.60;57.82;101836.06;4936146;28;20563;-77
2023/07/18 10:10:13;;;;;;;4.25;2.13;;;;;;;21.73;58.48;101840.56;4922054;28;20151;-77
2023/07/18 10:12:54;;;;;;;4.00;1.50;;;;;;;21.78;56.44;101832.25;4936710;28;20054;-80
2023/07/18 10:15:19;;;;;;;3.22;2.40;;;;;;;21.96;54.95;101835.81;4958957;28;20034;-76
2023/07/18 10:17:47;;;;;;;6.13;1.77;;;;;;;22.13;55.29;101831.50;4932380;28;20033;-81
2023/07/18 10:20:18;;;;;;;3.35;1.75;;;;;;;22.07;55.66;101831.63;4943689;28;20097;-79
2023/07/18 10:22:57;;;;;;;;;;;;;;;21.80;54.05;101832.72;4950898;28;20456;-77
2023/07/18 10:25:23;;;;;;;3.58;1.60;;;;;;;21.78;55.03;101828.72;4921254;28;20602;-78
2023/07/18 10:27:49;;;;;;;4.38;1.30;;;;;;;21.84;56.44;101813.81;4931516;28;20038;-77
2023/07/18 10:30:19;;;;;;;4.90;1.85;;;;;;;21.44;54.03;101815.84;4917388;28;20176;-78
2023/07/18 10:32:58;;;;;;;4.72;1.48;;;;;;;21.69;58.53;101815.09;4951401;28;20045;-78
2023/07/18 10:35:26;;;;;;;3.83;1.27;;;;;;;21.89;54.98;101813.66;4946174;28;20039;-79
2023/07/18 10:37:57;;;;;;;4.47;1.70;;;;;;;21.92;55.02;101820.41;4948639;28;20106;-79
2023/07/18 10:40:35;;;;;;;4.78;1.58;;;;;;;22.04;53.80;101813.19;4919728;28;20126;-76
2023/07/18 10:43:10;;;;;;;3.17;1.25;;;;;;;22.12;56.59;101819.00;4950714;28;20046;-79
2023/07/18 10:45:40;;;;;;;3.60;1.40;;;;;;;22.05;53.90;101814.78;4950279;28;20039;-79
2023/07/18 10:48:24;;;;;;;5.25;1.67;;;;;;;22.14;56.37;101811.28;4928942;28;20043;-77
2023/07/18 10:50:50;;;;;;;;;;;;;;;22.20;53.52;101801.81;4955736;28;20253;-79
2023/07/18 10:53:18;;;;;;;3.47;1.70;;;;;;;22.31;52.50;101806.63;4943687;28;20388;-80
2023/07/18 10:55:45;;;;;;;5.18;1.55;;;;;;;22.07;53.56;101796.16;4941686;28;20381;-78
2023/07/18 10:58:16;;;;;;;2.88;1.70;;;;;;;22.19;51.96;101795.53;4915452;28;20408;-80
2023/07/18 11:00:42;;;;;;;3.63;1.30;;;;;;;22.33;56.49;101792.63;4937460;28;20040;-76
2023/07/18 11:03:22;;;;;;;3.55;1.55;;;;;;;22.53;55.63;101796.63;4945325;28;20046;-80
2023/07/18 11:05:51;;;;;;;2.70;1.30;;;;;;;22.71;51.91;101787.25;4949596;28;20047;-77
2023/07/18 11:08:28;;;;;;;2.15;1.67;;;;;;;22.68;50.80;101784.38;4941696;28;20039;-78
2023/07/18 11:10:59;;;;;;;3.35;1.58;;;;;;;22.61;49.42;101782.13;4953641;28;20508;-77
2023/07/18 11:13:35;;;;;;;4.75;1.95;;;;;;;22.26;51.39;101778.69;4931000;28;20043;-76
2023/07/18 11:16:12;;;;;;;4.22;1.60;;;;;;;22.12;52.15;101780.78;4952742;28;20073;-77
2023/07/18 11:18:43;;;;;;;4.63;1.48;;;;;;;22.23;51.90;101782.06;4929988;28;20081;-77
2023/07/18 11:21:10;;;;;;;6.03;1.65;;;;;;;22.55;54.49;101767.84;4936675;28;20042;-77
2023/07/18 11:23:40;;;;;;;4.93;1.70;;;;;;;22.56;56.74;101766.75;4931927;28;21191;-76
2023/07/18 11:26:09;;;;;;;3.35;1.40;;;;;;;22.26;52.87;101767.78;4947937;28;20517;-78
2023/07/18 11:28:36;;;;;;;3.55;1.50;;;;;;;22.32;52.96;101770.00;4931581;28;20039;-77
2023/07/18 11:31:02;;;;;;;3.97;1.67;;;;;;;22.66;54.19;101762.84;4930427;28;20500;-77